sensor_id;sensor_type;location;lat;lon;timestamp;temperature;humidity
20735;DHT22;10528;52.124;5.196;2023-09-18T00:00:46;19.00;99.90
20735;DHT22;10528;52.124;5.196;2023-09-18T00:03:18;19.10;99.90
20735;DHT22;10528;52.124;5.196;2023-09-18T00:05:47;19.10;99.90
20735;DHT22;10528;52.124;5.196;2023-09-18T00:08:15;19.10;99.90
20735;DHT22;10528;52.124;5.196;2023-09-18T00:10:50;19.10;99.90
20735;DHT22;10528;52.124;5.196;2023-09-18T00:13:18;19.10;99.90
20735;DHT22;10528;52.124;5.196;2023-09-18T00:15:45;19.10;99.90
20735;DHT22;10528;52.124;5.196;2023-09-18T00:18:16;19.10;99.90
20735;DHT22;10528;52.124;5.196;2023-09-18T00:20:44;19.10;99.90
20735;DHT22;10528;52.124;5.196;2023-09-18T00:23:12;19.10;99.90
20735;DHT22;10528;52.124;5.196;2023-09-18T00:25:39;19.10;99.90
20735;DHT22;10528;52.124;5.196;2023-09-18T00:28:09;19.10;99.90
20735;DHT22;10528;52.124;5.196;2023-09-18T00:30:38;19.10;99.90
20735;DHT22;10528;52.124;5.196;2023-09-18T00:33:09;19.10;99.90
20735;DHT22;10528;52.124;5.196;2023-09-18T00:35:37;19.10;99.90
20735;DHT22;10528;52.124;5.196;2023-09-18T00:38:04;19.10;99.90
20735;DHT22;10528;52.124;5.196;2023-09-18T00:40:30;19.10;99.90
20735;DHT22;10528;52.124;5.196;2023-09-18T00:42:57;19.10;99.90
20735;DHT22;10528;52.124;5.196;2023-09-18T00:45:24;19.10;99.90
20735;DHT22;10528;52.124;5.196;2023-09-18T00:47:52;19.10;99.90
20735;DHT22;10528;52.124;5.196;2023-09-18T00:50:19;19.10;99.90
20735;DHT22;10528;52.124;5.196;2023-09-18T00:52:46;19.00;99.90
20735;DHT22;10528;52.124;5.196;2023-09-18T00:55:15;19.00;99.90
20735;DHT22;10528;52.124;5.196;2023-09-18T00:57:42;19.00;99.90
20735;DHT22;10528;52.124;5.196;2023-09-18T01:00:12;19.00;99.90
20735;DHT22;10528;52.124;5.196;2023-09-18T01:02:44;19.00;99.90
20735;DHT22;10528;52.124;5.196;2023-09-18T01:05:12;19.00;99.90
20735;DHT22;10528;52.124;5.196;2023-09-18T01:07:40;19.00;99.90
20735;DHT22;10528;52.124;5.196;2023-09-18T01:10:08;19.00;99.90
20735;DHT22;10528;52.124;5.196;2023-09-18T01:12:53;19.00;99.90
20735;DHT22;10528;52.124;5.196;2023-09-18T01:15:35;19.00;99.90
20735;DHT22;10528;52.124;5.196;2023-09-18T01:18:09;19.00;99.90
20735;DHT22;10528;52.124;5.196;2023-09-18T01:20:37;19.00;99.90
20735;DHT22;10528;52.124;5.196;2023-09-18T01:23:04;19.00;99.90
20735;DHT22;10528;52.124;5.196;2023-09-18T01:25:31;19.00;99.90
20735;DHT22;10528;52.124;5.196;2023-09-18T01:28:00;19.00;99.90
20735;DHT22;10528;52.124;5.196;2023-09-18T01:30:27;19.00;99.90
20735;DHT22;10528;52.124;5.196;2023-09-18T01:32:55;19.00;99.90
20735;DHT22;10528;52.124;5.196;2023-09-18T01:35:26;19.00;99.90
20735;DHT22;10528;52.124;5.196;2023-09-18T01:37:57;19.00;99.90
20735;DHT22;10528;52.124;5.196;2023-09-18T01:40:26;19.00;99.90
20735;DHT22;10528;52.124;5.196;2023-09-18T01:42:53;19.00;99.90
20735;DHT22;10528;52.124;5.196;2023-09-18T01:45:20;18.90;99.90
20735;DHT22;10528;52.124;5.196;2023-09-18T01:47:47;18.90;99.90
20735;DHT22;10528;52.124;5.196;2023-09-18T01:50:14;18.90;99.90
20735;DHT22;10528;52.124;5.196;2023-09-18T01:52:41;18.90;99.90
20735;DHT22;10528;52.124;5.196;2023-09-18T01:55:09;18.90;99.90
20735;DHT22;10528;52.124;5.196;2023-09-18T01:57:36;18.90;99.90
20735;DHT22;10528;52.124;5.196;2023-09-18T02:00:03;18.90;99.90
20735;DHT22;10528;52.124;5.196;2023-09-18T02:02:38;18.90;99.90
20735;DHT22;10528;52.124;5.196;2023-09-18T02:05:24;19.00;99.90
20735;DHT22;10528;52.124;5.196;2023-09-18T02:07:51;18.90;99.90
20735;DHT22;10528;52.124;5.196;2023-09-18T02:10:19;18.90;99.90
20735;DHT22;10528;52.124;5.196;2023-09-18T02:12:46;18.90;99.90
20735;DHT22;10528;52.124;5.196;2023-09-18T02:15:14;19.00;99.90
20735;DHT22;10528;52.124;5.196;2023-09-18T02:17:43;18.90;99.90
20735;DHT22;10528;52.124;5.196;2023-09-18T02:20:13;19.00;99.90
20735;DHT22;10528;52.124;5.196;2023-09-18T02:22:40;19.00;99.90
20735;DHT22;10528;52.124;5.196;2023-09-18T02:25:07;19.00;99.90
20735;DHT22;10528;52.124;5.196;2023-09-18T02:27:35;19.00;99.90
20735;DHT22;10528;52.124;5.196;2023-09-18T02:30:02;19.10;99.90
20735;DHT22;10528;52.124;5.196;2023-09-18T02:32:30;19.10;99.90
20735;DHT22;10528;52.124;5.196;2023-09-18T02:34:57;19.10;99.90
20735;DHT22;10528;52.124;5.196;2023-09-18T02:37:25;19.10;99.90
20735;DHT22;10528;52.124;5.196;2023-09-18T02:39:52;19.10;99.90
20735;DHT22;10528;52.124;5.196;2023-09-18T02:42:18;19.10;99.90
20735;DHT22;10528;52.124;5.196;2023-09-18T02:44:45;19.10;99.90
20735;DHT22;10528;52.124;5.196;2023-09-18T02:47:12;19.10;99.90
20735;DHT22;10528;52.124;5.196;2023-09-18T02:49:40;19.10;99.90
20735;DHT22;10528;52.124;5.196;2023-09-18T02:52:07;19.10;99.90
20735;DHT22;10528;52.124;5.196;2023-09-18T02:54:34;19.00;99.90
20735;DHT22;10528;52.124;5.196;2023-09-18T02:57:01;19.00;99.90
20735;DHT22;10528;52.124;5.196;2023-09-18T02:59:28;19.10;99.90
20735;DHT22;10528;52.124;5.196;2023-09-18T03:01:55;19.10;99.90
20735;DHT22;10528;52.124;5.196;2023-09-18T03:04:22;19.10;99.90
20735;DHT22;10528;52.124;5.196;2023-09-18T03:06:49;19.10;99.90
20735;DHT22;10528;52.124;5.196;2023-09-18T03:09:16;19.10;99.90
20735;DHT22;10528;52.124;5.196;2023-09-18T03:11:45;19.20;99.90
20735;DHT22;10528;52.124;5.196;2023-09-18T03:14:12;19.20;99.90
20735;DHT22;10528;52.124;5.196;2023-09-18T03:16:39;19.10;99.90
20735;DHT22;10528;52.124;5.196;2023-09-18T03:19:06;19.10;99.90
20735;DHT22;10528;52.124;5.196;2023-09-18T03:21:33;19.10;99.90
20735;DHT22;10528;52.124;5.196;2023-09-18T03:24:02;19.10;99.90
20735;DHT22;10528;52.124;5.196;2023-09-18T03:26:29;19.10;99.90
20735;DHT22;10528;52.124;5.196;2023-09-18T03:28:57;19.10;99.90
20735;DHT22;10528;52.124;5.196;2023-09-18T03:31:24;19.10;99.90
20735;DHT22;10528;52.124;5.196;2023-09-18T03:33:51;19.10;99.90
20735;DHT22;10528;52.124;5.196;2023-09-18T03:36:21;19.10;99.90
20735;DHT22;10528;52.124;5.196;2023-09-18T03:38:50;19.10;99.90
20735;DHT22;10528;52.124;5.196;2023-09-18T03:41:18;19.10;99.90
20735;DHT22;10528;52.124;5.196;2023-09-18T03:43:45;19.20;99.90
20735;DHT22;10528;52.124;5.196;2023-09-18T03:46:12;19.20;99.90
20735;DHT22;10528;52.124;5.196;2023-09-18T03:48:43;19.30;99.90
20735;DHT22;10528;52.124;5.196;2023-09-18T03:51:10;19.30;99.90
20735;DHT22;10528;52.124;5.196;2023-09-18T03:53:42;19.30;99.90
20735;DHT22;10528;52.124;5.196;2023-09-18T03:56:09;19.30;99.90
20735;DHT22;10528;52.124;5.196;2023-09-18T03:58:37;19.30;99.90
20735;DHT22;10528;52.124;5.196;2023-09-18T04:01:03;19.30;99.90
20735;DHT22;10528;52.124;5.196;2023-09-18T04:03:31;19.30;99.90
20735;DHT22;10528;52.124;5.196;2023-09-18T04:05:58;19.30;99.90
20735;DHT22;10528;52.124;5.196;2023-09-18T04:08:25;19.40;99.90
20735;DHT22;10528;52.124;5.196;2023-09-18T04:10:53;19.30;99.90
20735;DHT22;10528;52.124;5.196;2023-09-18T04:13:23;19.30;99.90
20735;DHT22;10528;52.124;5.196;2023-09-18T04:15:52;19.40;99.90
20735;DHT22;10528;52.124;5.196;2023-09-18T04:18:24;19.50;99.90
20735;DHT22;10528;52.124;5.196;2023-09-18T04:20:51;19.50;99.90
20735;DHT22;10528;52.124;5.196;2023-09-18T04:23:23;19.60;99.90
20735;DHT22;10528;52.124;5.196;2023-09-18T04:25:53;19.50;99.90
20735;DHT22;10528;52.124;5.196;2023-09-18T04:28:22;19.60;99.90
20735;DHT22;10528;52.124;5.196;2023-09-18T04:30:50;19.70;99.90
20735;DHT22;10528;52.124;5.196;2023-09-18T04:33:17;19.60;99.90
20735;DHT22;10528;52.124;5.196;2023-09-18T04:35:45;19.60;99.90
20735;DHT22;10528;52.124;5.196;2023-09-18T04:38:13;19.70;99.90
20735;DHT22;10528;52.124;5.196;2023-09-18T04:40:43;19.70;99.90
20735;DHT22;10528;52.124;5.196;2023-09-18T04:43:12;19.70;99.90
20735;DHT22;10528;52.124;5.196;2023-09-18T04:45:40;19.80;99.90
20735;DHT22;10528;52.124;5.196;2023-09-18T04:48:07;19.70;99.90
20735;DHT22;10528;52.124;5.196;2023-09-18T04:50:35;19.70;99.90
20735;DHT22;10528;52.124;5.196;2023-09-18T04:53:02;19.70;99.90
20735;DHT22;10528;52.124;5.196;2023-09-18T04:55:31;19.80;99.90
20735;DHT22;10528;52.124;5.196;2023-09-18T04:57:58;19.80;99.90
20735;DHT22;10528;52.124;5.196;2023-09-18T05:00:26;19.70;99.90
20735;DHT22;10528;52.124;5.196;2023-09-18T05:02:53;19.70;99.90
20735;DHT22;10528;52.124;5.196;2023-09-18T05:05:21;19.50;99.90
20735;DHT22;10528;52.124;5.196;2023-09-18T05:07:48;19.50;99.90
20735;DHT22;10528;52.124;5.196;2023-09-18T05:10:15;19.30;99.90
20735;DHT22;10528;52.124;5.196;2023-09-18T05:12:42;19.40;99.90
20735;DHT22;10528;52.124;5.196;2023-09-18T05:15:09;19.30;99.90
20735;DHT22;10528;52.124;5.196;2023-09-18T05:17:45;19.30;99.90
20735;DHT22;10528;52.124;5.196;2023-09-18T05:20:16;19.30;99.90
20735;DHT22;10528;52.124;5.196;2023-09-18T05:22:45;19.30;99.90
20735;DHT22;10528;52.124;5.196;2023-09-18T05:25:13;19.30;99.90
20735;DHT22;10528;52.124;5.196;2023-09-18T05:27:43;19.30;99.90
20735;DHT22;10528;52.124;5.196;2023-09-18T05:30:17;19.30;99.90
20735;DHT22;10528;52.124;5.196;2023-09-18T05:32:48;19.30;99.90
20735;DHT22;10528;52.124;5.196;2023-09-18T05:35:15;19.30;99.90
20735;DHT22;10528;52.124;5.196;2023-09-18T05:37:44;19.30;99.90
20735;DHT22;10528;52.124;5.196;2023-09-18T05:40:12;19.30;99.90
20735;DHT22;10528;52.124;5.196;2023-09-18T05:42:41;19.30;99.90
20735;DHT22;10528;52.124;5.196;2023-09-18T05:45:11;19.30;99.90
20735;DHT22;10528;52.124;5.196;2023-09-18T05:47:39;19.30;99.90
20735;DHT22;10528;52.124;5.196;2023-09-18T05:50:08;19.30;99.90
20735;DHT22;10528;52.124;5.196;2023-09-18T05:52:36;19.30;99.90
20735;DHT22;10528;52.124;5.196;2023-09-18T05:55:03;19.30;99.90
20735;DHT22;10528;52.124;5.196;2023-09-18T05:57:31;19.20;99.90
20735;DHT22;10528;52.124;5.196;2023-09-18T05:59:59;19.20;99.90
20735;DHT22;10528;52.124;5.196;2023-09-18T06:02:26;19.20;99.90
20735;DHT22;10528;52.124;5.196;2023-09-18T06:05:00;19.20;99.90
20735;DHT22;10528;52.124;5.196;2023-09-18T06:07:30;19.20;99.90
20735;DHT22;10528;52.124;5.196;2023-09-18T06:09:57;19.20;99.90
20735;DHT22;10528;52.124;5.196;2023-09-18T06:12:25;19.20;99.90
20735;DHT22;10528;52.124;5.196;2023-09-18T06:14:52;19.20;99.90
20735;DHT22;10528;52.124;5.196;2023-09-18T06:17:20;19.30;99.90
20735;DHT22;10528;52.124;5.196;2023-09-18T06:19:47;19.30;99.90
20735;DHT22;10528;52.124;5.196;2023-09-18T06:22:14;19.30;99.90
20735;DHT22;10528;52.124;5.196;2023-09-18T06:24:41;19.40;99.90
20735;DHT22;10528;52.124;5.196;2023-09-18T06:27:09;19.40;99.90
20735;DHT22;10528;52.124;5.196;2023-09-18T06:29:37;19.40;99.90
20735;DHT22;10528;52.124;5.196;2023-09-18T06:32:06;19.40;99.90
20735;DHT22;10528;52.124;5.196;2023-09-18T06:34:33;19.40;99.90
20735;DHT22;10528;52.124;5.196;2023-09-18T06:37:00;19.40;99.90
20735;DHT22;10528;52.124;5.196;2023-09-18T06:39:27;19.40;99.90
20735;DHT22;10528;52.124;5.196;2023-09-18T06:41:54;19.40;99.90
20735;DHT22;10528;52.124;5.196;2023-09-18T06:44:23;19.40;99.90
20735;DHT22;10528;52.124;5.196;2023-09-18T06:46:50;19.40;99.90
20735;DHT22;10528;52.124;5.196;2023-09-18T06:49:19;19.40;99.90
20735;DHT22;10528;52.124;5.196;2023-09-18T06:51:46;19.40;99.90
20735;DHT22;10528;52.124;5.196;2023-09-18T06:54:13;19.50;99.90
20735;DHT22;10528;52.124;5.196;2023-09-18T06:56:41;19.50;99.90
20735;DHT22;10528;52.124;5.196;2023-09-18T06:59:11;19.50;99.90
20735;DHT22;10528;52.124;5.196;2023-09-18T07:01:39;19.50;99.90
20735;DHT22;10528;52.124;5.196;2023-09-18T07:04:09;19.50;99.90
20735;DHT22;10528;52.124;5.196;2023-09-18T07:06:37;19.50;99.90
20735;DHT22;10528;52.124;5.196;2023-09-18T07:09:04;19.50;99.90
20735;DHT22;10528;52.124;5.196;2023-09-18T07:11:33;19.60;99.90
20735;DHT22;10528;52.124;5.196;2023-09-18T07:14:01;19.60;99.90
20735;DHT22;10528;52.124;5.196;2023-09-18T07:16:33;19.60;99.90
20735;DHT22;10528;52.124;5.196;2023-09-18T07:19:01;19.60;99.90
20735;DHT22;10528;52.124;5.196;2023-09-18T07:21:31;19.60;99.90
20735;DHT22;10528;52.124;5.196;2023-09-18T07:23:58;19.60;99.90
20735;DHT22;10528;52.124;5.196;2023-09-18T07:26:25;19.70;99.90
20735;DHT22;10528;52.124;5.196;2023-09-18T07:28:52;19.70;99.90
20735;DHT22;10528;52.124;5.196;2023-09-18T07:31:20;19.70;99.90
20735;DHT22;10528;52.124;5.196;2023-09-18T07:33:47;19.70;99.90
20735;DHT22;10528;52.124;5.196;2023-09-18T07:36:15;19.70;99.90
20735;DHT22;10528;52.124;5.196;2023-09-18T07:38:42;19.70;99.90
20735;DHT22;10528;52.124;5.196;2023-09-18T07:41:10;19.70;99.90
20735;DHT22;10528;52.124;5.196;2023-09-18T07:43:37;19.80;99.90
20735;DHT22;10528;52.124;5.196;2023-09-18T07:46:05;19.70;99.90
20735;DHT22;10528;52.124;5.196;2023-09-18T07:48:32;19.80;99.90
20735;DHT22;10528;52.124;5.196;2023-09-18T07:51:00;19.80;99.90
20735;DHT22;10528;52.124;5.196;2023-09-18T07:53:27;19.90;99.90
20735;DHT22;10528;52.124;5.196;2023-09-18T07:55:58;19.90;99.90
20735;DHT22;10528;52.124;5.196;2023-09-18T07:58:26;19.80;99.90
20735;DHT22;10528;52.124;5.196;2023-09-18T08:00:57;19.80;99.90
20735;DHT22;10528;52.124;5.196;2023-09-18T08:03:25;19.80;99.90
20735;DHT22;10528;52.124;5.196;2023-09-18T08:05:53;19.80;99.90
20735;DHT22;10528;52.124;5.196;2023-09-18T08:08:21;19.90;99.90
20735;DHT22;10528;52.124;5.196;2023-09-18T08:10:51;19.80;99.90
20735;DHT22;10528;52.124;5.196;2023-09-18T08:13:18;19.90;99.90
20735;DHT22;10528;52.124;5.196;2023-09-18T08:15:46;19.90;99.90
20735;DHT22;10528;52.124;5.196;2023-09-18T08:18:13;19.90;99.90
20735;DHT22;10528;52.124;5.196;2023-09-18T08:20:44;20.00;99.90
20735;DHT22;10528;52.124;5.196;2023-09-18T08:23:11;20.10;99.90
20735;DHT22;10528;52.124;5.196;2023-09-18T08:25:39;20.10;99.90
20735;DHT22;10528;52.124;5.196;2023-09-18T08:28:09;20.00;99.90
20735;DHT22;10528;52.124;5.196;2023-09-18T08:30:36;20.00;99.90
20735;DHT22;10528;52.124;5.196;2023-09-18T08:33:07;20.00;99.90
20735;DHT22;10528;52.124;5.196;2023-09-18T08:35:34;19.90;99.90
20735;DHT22;10528;52.124;5.196;2023-09-18T08:38:00;20.00;99.90
20735;DHT22;10528;52.124;5.196;2023-09-18T08:40:28;20.10;99.90
20735;DHT22;10528;52.124;5.196;2023-09-18T08:42:56;20.10;99.90
20735;DHT22;10528;52.124;5.196;2023-09-18T08:45:43;20.20;99.90
20735;DHT22;10528;52.124;5.196;2023-09-18T08:48:14;20.30;99.90
20735;DHT22;10528;52.124;5.196;2023-09-18T08:50:42;20.40;99.90
20735;DHT22;10528;52.124;5.196;2023-09-18T08:53:11;20.50;99.90
20735;DHT22;10528;52.124;5.196;2023-09-18T08:55:39;20.50;99.90
20735;DHT22;10528;52.124;5.196;2023-09-18T08:58:07;20.50;99.90
20735;DHT22;10528;52.124;5.196;2023-09-18T09:00:37;20.50;99.90
20735;DHT22;10528;52.124;5.196;2023-09-18T09:03:04;20.50;99.90
20735;DHT22;10528;52.124;5.196;2023-09-18T09:05:32;20.60;99.90
20735;DHT22;10528;52.124;5.196;2023-09-18T09:08:00;20.60;99.90
20735;DHT22;10528;52.124;5.196;2023-09-18T09:10:28;20.60;99.90
20735;DHT22;10528;52.124;5.196;2023-09-18T09:12:59;20.50;99.90
20735;DHT22;10528;52.124;5.196;2023-09-18T09:15:31;20.60;99.90
20735;DHT22;10528;52.124;5.196;2023-09-18T09:18:04;20.70;99.90
20735;DHT22;10528;52.124;5.196;2023-09-18T09:20:33;20.60;99.90
20735;DHT22;10528;52.124;5.196;2023-09-18T09:23:04;20.70;99.90
20735;DHT22;10528;52.124;5.196;2023-09-18T09:25:33;20.70;99.90
20735;DHT22;10528;52.124;5.196;2023-09-18T09:28:03;20.80;99.90
20735;DHT22;10528;52.124;5.196;2023-09-18T09:30:33;20.90;99.90
20735;DHT22;10528;52.124;5.196;2023-09-18T09:33:05;20.90;99.90
20735;DHT22;10528;52.124;5.196;2023-09-18T09:35:36;20.80;99.90
20735;DHT22;10528;52.124;5.196;2023-09-18T09:38:11;20.70;99.90
20735;DHT22;10528;52.124;5.196;2023-09-18T09:40:41;20.70;99.90
20735;DHT22;10528;52.124;5.196;2023-09-18T09:43:12;20.70;99.90
20735;DHT22;10528;52.124;5.196;2023-09-18T09:45:42;20.60;99.90
20735;DHT22;10528;52.124;5.196;2023-09-18T09:48:12;20.50;99.90
20735;DHT22;10528;52.124;5.196;2023-09-18T09:50:47;20.50;99.90
20735;DHT22;10528;52.124;5.196;2023-09-18T09:53:16;20.40;99.90
20735;DHT22;10528;52.124;5.196;2023-09-18T09:55:43;20.30;99.90
20735;DHT22;10528;52.124;5.196;2023-09-18T09:58:11;20.50;99.90
20735;DHT22;10528;52.124;5.196;2023-09-18T10:00:46;20.50;99.90
20735;DHT22;10528;52.124;5.196;2023-09-18T10:03:18;20.50;99.90
20735;DHT22;10528;52.124;5.196;2023-09-18T10:05:47;20.50;99.90
20735;DHT22;10528;52.124;5.196;2023-09-18T10:08:22;20.50;99.90
20735;DHT22;10528;52.124;5.196;2023-09-18T10:11:06;20.50;99.90
20735;DHT22;10528;52.124;5.196;2023-09-18T10:13:46;20.50;99.90
20735;DHT22;10528;52.124;5.196;2023-09-18T10:16:17;20.60;99.90
20735;DHT22;10528;52.124;5.196;2023-09-18T10:18:59;20.70;99.90
20735;DHT22;10528;52.124;5.196;2023-09-18T10:21:57;20.90;99.90
20735;DHT22;10528;52.124;5.196;2023-09-18T10:24:37;21.10;99.90
20735;DHT22;10528;52.124;5.196;2023-09-18T10:27:08;21.10;99.90
20735;DHT22;10528;52.124;5.196;2023-09-18T10:29:41;21.00;99.90
20735;DHT22;10528;52.124;5.196;2023-09-18T10:32:11;21.00;99.90
20735;DHT22;10528;52.124;5.196;2023-09-18T10:34:41;21.00;99.90
20735;DHT22;10528;52.124;5.196;2023-09-18T10:37:11;20.90;99.90
20735;DHT22;10528;52.124;5.196;2023-09-18T10:39:39;20.80;99.90
20735;DHT22;10528;52.124;5.196;2023-09-18T10:42:08;20.80;99.90
20735;DHT22;10528;52.124;5.196;2023-09-18T10:44:37;20.80;99.90
20735;DHT22;10528;52.124;5.196;2023-09-18T10:47:09;20.80;99.90
20735;DHT22;10528;52.124;5.196;2023-09-18T10:49:37;20.80;99.90
20735;DHT22;10528;52.124;5.196;2023-09-18T10:52:05;20.80;99.90
20735;DHT22;10528;52.124;5.196;2023-09-18T10:54:37;20.80;99.90
20735;DHT22;10528;52.124;5.196;2023-09-18T10:57:06;20.90;99.90
20735;DHT22;10528;52.124;5.196;2023-09-18T10:59:32;21.10;99.90
20735;DHT22;10528;52.124;5.196;2023-09-18T11:02:03;21.20;99.90
20735;DHT22;10528;52.124;5.196;2023-09-18T11:04:33;21.40;99.90
20735;DHT22;10528;52.124;5.196;2023-09-18T11:07:01;21.50;99.90
20735;DHT22;10528;52.124;5.196;2023-09-18T11:09:31;21.50;99.90
20735;DHT22;10528;52.124;5.196;2023-09-18T11:12:09;21.70;99.90
20735;DHT22;10528;52.124;5.196;2023-09-18T11:14:57;21.70;99.90
20735;DHT22;10528;52.124;5.196;2023-09-18T11:17:32;21.80;99.90
20735;DHT22;10528;52.124;5.196;2023-09-18T11:20:25;22.00;99.90
20735;DHT22;10528;52.124;5.196;2023-09-18T11:23:36;21.90;99.90
20735;DHT22;10528;52.124;5.196;2023-09-18T11:26:10;21.90;99.90
20735;DHT22;10528;52.124;5.196;2023-09-18T11:28:38;22.00;99.90
20735;DHT22;10528;52.124;5.196;2023-09-18T11:31:05;22.00;99.90
20735;DHT22;10528;52.124;5.196;2023-09-18T11:33:40;22.20;99.90
20735;DHT22;10528;52.124;5.196;2023-09-18T11:36:28;22.20;99.90
20735;DHT22;10528;52.124;5.196;2023-09-18T11:39:00;22.20;99.90
20735;DHT22;10528;52.124;5.196;2023-09-18T11:41:33;22.20;99.90
20735;DHT22;10528;52.124;5.196;2023-09-18T11:46:56;22.30;99.90
20735;DHT22;10528;52.124;5.196;2023-09-18T11:49:24;22.10;99.90
20735;DHT22;10528;52.124;5.196;2023-09-18T11:51:58;22.00;99.90
20735;DHT22;10528;52.124;5.196;2023-09-18T11:54:27;22.00;99.90
20735;DHT22;10528;52.124;5.196;2023-09-18T11:56:56;22.00;99.90
20735;DHT22;10528;52.124;5.196;2023-09-18T11:59:38;22.20;99.90
20735;DHT22;10528;52.124;5.196;2023-09-18T12:02:12;22.10;99.90
20735;DHT22;10528;52.124;5.196;2023-09-18T12:04:47;22.00;99.90
20735;DHT22;10528;52.124;5.196;2023-09-18T12:07:17;22.00;99.90
20735;DHT22;10528;52.124;5.196;2023-09-18T12:09:45;22.20;99.90
20735;DHT22;10528;52.124;5.196;2023-09-18T12:12:14;22.40;99.90
20735;DHT22;10528;52.124;5.196;2023-09-18T12:14:42;22.60;99.90
20735;DHT22;10528;52.124;5.196;2023-09-18T12:17:15;22.70;99.90
20735;DHT22;10528;52.124;5.196;2023-09-18T12:19:55;22.70;99.90
20735;DHT22;10528;52.124;5.196;2023-09-18T12:22:27;22.50;99.90
20735;DHT22;10528;52.124;5.196;2023-09-18T12:25:09;22.50;99.90
20735;DHT22;10528;52.124;5.196;2023-09-18T12:27:42;22.40;99.90
20735;DHT22;10528;52.124;5.196;2023-09-18T12:30:10;22.30;99.90
20735;DHT22;10528;52.124;5.196;2023-09-18T12:32:39;22.20;99.90
20735;DHT22;10528;52.124;5.196;2023-09-18T12:35:06;22.50;99.90
20735;DHT22;10528;52.124;5.196;2023-09-18T12:37:41;22.60;99.90
20735;DHT22;10528;52.124;5.196;2023-09-18T12:40:28;22.60;99.90
20735;DHT22;10528;52.124;5.196;2023-09-18T12:42:57;22.50;99.90
20735;DHT22;10528;52.124;5.196;2023-09-18T12:45:26;22.50;99.90
20735;DHT22;10528;52.124;5.196;2023-09-18T12:47:55;22.40;99.90
20735;DHT22;10528;52.124;5.196;2023-09-18T12:50:25;22.30;99.90
20735;DHT22;10528;52.124;5.196;2023-09-18T12:52:53;22.20;99.90
20735;DHT22;10528;52.124;5.196;2023-09-18T12:55:26;22.30;99.90
20735;DHT22;10528;52.124;5.196;2023-09-18T12:57:54;22.40;99.90
20735;DHT22;10528;52.124;5.196;2023-09-18T13:00:22;22.50;99.90
20735;DHT22;10528;52.124;5.196;2023-09-18T13:02:50;22.50;99.90
20735;DHT22;10528;52.124;5.196;2023-09-18T13:05:22;22.50;99.90
20735;DHT22;10528;52.124;5.196;2023-09-18T13:07:53;22.60;99.90
20735;DHT22;10528;52.124;5.196;2023-09-18T13:10:21;22.70;99.90
20735;DHT22;10528;52.124;5.196;2023-09-18T13:12:52;22.70;99.90
20735;DHT22;10528;52.124;5.196;2023-09-18T13:15:26;22.70;99.90
20735;DHT22;10528;52.124;5.196;2023-09-18T13:18:08;22.50;99.90
20735;DHT22;10528;52.124;5.196;2023-09-18T13:20:36;22.40;99.90
20735;DHT22;10528;52.124;5.196;2023-09-18T13:23:03;22.30;99.90
20735;DHT22;10528;52.124;5.196;2023-09-18T13:25:33;22.20;99.90
20735;DHT22;10528;52.124;5.196;2023-09-18T13:28:06;22.30;99.90
20735;DHT22;10528;52.124;5.196;2023-09-18T13:30:39;22.40;99.90
20735;DHT22;10528;52.124;5.196;2023-09-18T13:33:08;22.40;99.90
20735;DHT22;10528;52.124;5.196;2023-09-18T13:35:41;22.40;99.90
20735;DHT22;10528;52.124;5.196;2023-09-18T13:38:10;22.40;99.90
20735;DHT22;10528;52.124;5.196;2023-09-18T13:40:39;22.40;99.90
20735;DHT22;10528;52.124;5.196;2023-09-18T13:43:08;22.40;99.90
20735;DHT22;10528;52.124;5.196;2023-09-18T13:45:36;22.40;99.90
20735;DHT22;10528;52.124;5.196;2023-09-18T13:48:05;22.30;99.90
20735;DHT22;10528;52.124;5.196;2023-09-18T13:50:34;22.30;99.90
20735;DHT22;10528;52.124;5.196;2023-09-18T13:53:02;22.30;99.90
20735;DHT22;10528;52.124;5.196;2023-09-18T13:55:33;22.20;99.90
20735;DHT22;10528;52.124;5.196;2023-09-18T13:58:02;22.10;99.90
20735;DHT22;10528;52.124;5.196;2023-09-18T14:00:30;22.10;99.90
20735;DHT22;10528;52.124;5.196;2023-09-18T14:02:58;22.10;99.90
20735;DHT22;10528;52.124;5.196;2023-09-18T14:05:26;22.00;99.90
20735;DHT22;10528;52.124;5.196;2023-09-18T14:07:55;22.10;99.90
20735;DHT22;10528;52.124;5.196;2023-09-18T14:10:27;22.00;99.90
20735;DHT22;10528;52.124;5.196;2023-09-18T14:12:54;22.00;99.90
20735;DHT22;10528;52.124;5.196;2023-09-18T14:15:22;22.10;99.90
20735;DHT22;10528;52.124;5.196;2023-09-18T14:17:49;22.10;99.90
20735;DHT22;10528;52.124;5.196;2023-09-18T14:20:16;22.10;99.90
20735;DHT22;10528;52.124;5.196;2023-09-18T14:22:46;22.00;99.90
20735;DHT22;10528;52.124;5.196;2023-09-18T14:25:17;22.00;99.90
20735;DHT22;10528;52.124;5.196;2023-09-18T14:27:47;21.90;99.90
20735;DHT22;10528;52.124;5.196;2023-09-18T14:30:14;21.90;99.90
20735;DHT22;10528;52.124;5.196;2023-09-18T14:32:41;21.90;99.90
20735;DHT22;10528;52.124;5.196;2023-09-18T14:35:08;21.90;99.90
20735;DHT22;10528;52.124;5.196;2023-09-18T14:37:36;21.90;99.90
20735;DHT22;10528;52.124;5.196;2023-09-18T14:40:04;21.90;99.90
20735;DHT22;10528;52.124;5.196;2023-09-18T14:42:32;21.90;99.90
20735;DHT22;10528;52.124;5.196;2023-09-18T14:45:00;21.90;99.90
20735;DHT22;10528;52.124;5.196;2023-09-18T14:47:29;21.80;99.90
20735;DHT22;10528;52.124;5.196;2023-09-18T14:49:56;21.70;99.90
20735;DHT22;10528;52.124;5.196;2023-09-18T14:52:25;21.70;99.90
20735;DHT22;10528;52.124;5.196;2023-09-18T14:54:52;21.70;99.90
20735;DHT22;10528;52.124;5.196;2023-09-18T14:57:19;21.70;99.90
20735;DHT22;10528;52.124;5.196;2023-09-18T14:59:46;21.60;99.90
20735;DHT22;10528;52.124;5.196;2023-09-18T15:02:15;21.60;99.90
20735;DHT22;10528;52.124;5.196;2023-09-18T15:04:44;21.30;99.90
20735;DHT22;10528;52.124;5.196;2023-09-18T15:07:12;21.00;99.90
20735;DHT22;10528;52.124;5.196;2023-09-18T15:09:40;20.80;99.90
20735;DHT22;10528;52.124;5.196;2023-09-18T15:12:07;20.30;99.90
20735;DHT22;10528;52.124;5.196;2023-09-18T15:14:36;20.00;99.90
20735;DHT22;10528;52.124;5.196;2023-09-18T15:17:04;20.00;99.90
20735;DHT22;10528;52.124;5.196;2023-09-18T15:19:31;19.70;99.90
20735;DHT22;10528;52.124;5.196;2023-09-18T15:21:59;19.60;99.90
20735;DHT22;10528;52.124;5.196;2023-09-18T15:24:27;19.30;99.90
20735;DHT22;10528;52.124;5.196;2023-09-18T15:26:54;19.20;99.90
20735;DHT22;10528;52.124;5.196;2023-09-18T15:29:23;19.10;99.90
20735;DHT22;10528;52.124;5.196;2023-09-18T15:31:50;19.00;99.90
20735;DHT22;10528;52.124;5.196;2023-09-18T15:34:17;18.80;99.90
20735;DHT22;10528;52.124;5.196;2023-09-18T15:36:44;18.70;99.90
20735;DHT22;10528;52.124;5.196;2023-09-18T15:39:11;18.60;99.90
20735;DHT22;10528;52.124;5.196;2023-09-18T15:41:39;18.60;99.90
20735;DHT22;10528;52.124;5.196;2023-09-18T15:44:07;18.50;99.90
20735;DHT22;10528;52.124;5.196;2023-09-18T15:46:36;18.50;99.90